sensor_id;sensor_type;location;lat;lon;timestamp;pressure;altitude;pressure_sealevel;temperature;humidity
45323;BME280;31382;50.200;8.674;2023-04-20T00:00:29;100514.03;;;9.50;43.70
45323;BME280;31382;50.200;8.674;2023-04-20T00:05:31;100514.19;;;9.49;43.78
45323;BME280;31382;50.200;8.674;2023-04-20T00:10:33;100503.09;;;9.44;44.36
45323;BME280;31382;50.200;8.674;2023-04-20T00:15:34;100493.03;;;9.38;44.28
45323;BME280;31382;50.200;8.674;2023-04-20T00:20:36;100488.50;;;9.30;44.33
45323;BME280;31382;50.200;8.674;2023-04-20T00:25:37;100484.66;;;9.24;44.50
45323;BME280;31382;50.200;8.674;2023-04-20T00:30:38;100470.88;;;9.11;45.48
45323;BME280;31382;50.200;8.674;2023-04-20T00:35:40;100473.16;;;8.98;45.79
45323;BME280;31382;50.200;8.674;2023-04-20T00:40:42;100468.94;;;8.87;45.98
45323;BME280;31382;50.200;8.674;2023-04-20T00:45:47;100466.91;;;8.81;46.39
45323;BME280;31382;50.200;8.674;2023-04-20T00:50:49;100465.34;;;8.70;46.31
45323;BME280;31382;50.200;8.674;2023-04-20T00:55:51;100463.44;;;8.54;46.88
45323;BME280;31382;50.200;8.674;2023-04-20T01:00:53;100454.88;;;8.50;46.27
45323;BME280;31382;50.200;8.674;2023-04-20T01:05:54;100446.50;;;8.45;47.04
45323;BME280;31382;50.200;8.674;2023-04-20T01:10:56;100436.53;;;8.38;47.20
45323;BME280;31382;50.200;8.674;2023-04-20T01:15:58;100426.78;;;8.28;47.42
45323;BME280;31382;50.200;8.674;2023-04-20T01:21:00;100423.72;;;8.23;48.47
45323;BME280;31382;50.200;8.674;2023-04-20T01:26:06;100413.84;;;8.16;48.36
45323;BME280;31382;50.200;8.674;2023-04-20T01:31:09;100416.63;;;8.06;48.70
45323;BME280;31382;50.200;8.674;2023-04-20T01:36:11;100407.09;;;8.11;48.86
45323;BME280;31382;50.200;8.674;2023-04-20T01:41:13;100410.81;;;8.19;48.31
45323;BME280;31382;50.200;8.674;2023-04-20T01:46:14;100408.19;;;8.27;48.41
45323;BME280;31382;50.200;8.674;2023-04-20T01:51:16;100403.47;;;8.21;48.58
45323;BME280;31382;50.200;8.674;2023-04-20T01:56:17;100397.44;;;8.19;48.72
45323;BME280;31382;50.200;8.674;2023-04-20T02:01:18;100396.94;;;8.23;48.84
45323;BME280;31382;50.200;8.674;2023-04-20T02:06:20;100396.16;;;8.31;49.25
45323;BME280;31382;50.200;8.674;2023-04-20T02:11:21;100392.34;;;8.33;49.88
45323;BME280;31382;50.200;8.674;2023-04-20T02:16:23;100384.03;;;8.45;49.56
45323;BME280;31382;50.200;8.674;2023-04-20T02:21:25;100391.59;;;8.49;50.20
45323;BME280;31382;50.200;8.674;2023-04-20T02:26:26;100386.91;;;8.51;51.05
45323;BME280;31382;50.200;8.674;2023-04-20T02:31:27;100375.34;;;8.51;50.92
45323;BME280;31382;50.200;8.674;2023-04-20T02:36:29;100372.50;;;8.52;52.10
45323;BME280;31382;50.200;8.674;2023-04-20T02:41:31;100373.19;;;8.54;52.34
45323;BME280;31382;50.200;8.674;2023-04-20T02:46:32;100370.03;;;8.59;52.31
45323;BME280;31382;50.200;8.674;2023-04-20T02:51:34;100360.31;;;8.58;52.75
45323;BME280;31382;50.200;8.674;2023-04-20T02:56:35;100362.66;;;8.61;52.88
45323;BME280;31382;50.200;8.674;2023-04-20T03:01:37;100355.47;;;8.62;53.31
45323;BME280;31382;50.200;8.674;2023-04-20T03:06:38;100357.78;;;8.65;53.48
45323;BME280;31382;50.200;8.674;2023-04-20T03:11:40;100357.31;;;8.69;53.99
45323;BME280;31382;50.200;8.674;2023-04-20T03:16:42;100357.19;;;8.79;54.04
45323;BME280;31382;50.200;8.674;2023-04-20T03:21:44;100357.31;;;8.69;54.45
45323;BME280;31382;50.200;8.674;2023-04-20T03:26:45;100360.16;;;8.60;54.55
45323;BME280;31382;50.200;8.674;2023-04-20T03:31:47;100359.44;;;8.49;55.83
45323;BME280;31382;50.200;8.674;2023-04-20T03:36:48;100360.09;;;8.43;56.04
45323;BME280;31382;50.200;8.674;2023-04-20T03:41:50;100355.81;;;8.32;56.80
45323;BME280;31382;50.200;8.674;2023-04-20T03:46:51;100352.09;;;8.25;56.94
45323;BME280;31382;50.200;8.674;2023-04-20T03:51:53;100356.22;;;8.11;57.59
45323;BME280;31382;50.200;8.674;2023-04-20T03:56:54;100349.47;;;7.99;57.52
45323;BME280;31382;50.200;8.674;2023-04-20T04:01:55;100355.47;;;7.93;58.66
45323;BME280;31382;50.200;8.674;2023-04-20T04:06:57;100353.91;;;7.82;59.20
45323;BME280;31382;50.200;8.674;2023-04-20T04:11:58;100345.03;;;7.82;58.87
45323;BME280;31382;50.200;8.674;2023-04-20T04:17:00;100347.81;;;7.72;60.17
45323;BME280;31382;50.200;8.674;2023-04-20T04:22:01;100344.63;;;7.68;59.61
45323;BME280;31382;50.200;8.674;2023-04-20T04:27:03;100348.44;;;7.66;60.12
45323;BME280;31382;50.200;8.674;2023-04-20T04:32:06;100336.03;;;7.57;61.22
45323;BME280;31382;50.200;8.674;2023-04-20T04:37:08;100342.09;;;7.67;60.50
45323;BME280;31382;50.200;8.674;2023-04-20T04:42:09;100339.09;;;7.70;60.25
45323;BME280;31382;50.200;8.674;2023-04-20T04:47:11;100335.38;;;7.63;60.89
45323;BME280;31382;50.200;8.674;2023-04-20T04:52:12;100338.75;;;7.65;61.86
45323;BME280;31382;50.200;8.674;2023-04-20T04:57:13;100336.13;;;7.73;60.72
45323;BME280;31382;50.200;8.674;2023-04-20T05:02:15;100325.25;;;7.74;61.85
45323;BME280;31382;50.200;8.674;2023-04-20T05:07:17;100329.59;;;7.75;61.68
45323;BME280;31382;50.200;8.674;2023-04-20T05:12:18;100333.81;;;7.78;61.54
45323;BME280;31382;50.200;8.674;2023-04-20T05:17:20;100331.25;;;7.68;61.96
45323;BME280;31382;50.200;8.674;2023-04-20T05:22:21;100339.31;;;7.77;61.97
45323;BME280;31382;50.200;8.674;2023-04-20T05:27:23;100338.84;;;7.81;62.04
45323;BME280;31382;50.200;8.674;2023-04-20T05:32:24;100329.53;;;7.93;62.29
45323;BME280;31382;50.200;8.674;2023-04-20T05:37:25;100331.72;;;7.90;62.20
45323;BME280;31382;50.200;8.674;2023-04-20T05:42:27;100332.41;;;7.92;62.23
45323;BME280;31382;50.200;8.674;2023-04-20T05:47:29;100329.06;;;7.98;62.30
45323;BME280;31382;50.200;8.674;2023-04-20T05:52:30;100333.41;;;7.99;62.38
45323;BME280;31382;50.200;8.674;2023-04-20T05:57:32;100334.81;;;8.11;62.87
45323;BME280;31382;50.200;8.674;2023-04-20T06:02:33;100336.00;;;8.17;62.42
45323;BME280;31382;50.200;8.674;2023-04-20T06:07:35;100333.84;;;8.21;62.83
45323;BME280;31382;50.200;8.674;2023-04-20T06:12:36;100340.09;;;8.29;62.92
45323;BME280;31382;50.200;8.674;2023-04-20T06:17:38;100334.31;;;8.42;62.28
45323;BME280;31382;50.200;8.674;2023-04-20T06:22:42;100337.44;;;8.38;62.98
45323;BME280;31382;50.200;8.674;2023-04-20T06:27:44;100331.34;;;8.53;62.75
45323;BME280;31382;50.200;8.674;2023-04-20T06:32:46;100337.22;;;8.57;63.57
45323;BME280;31382;50.200;8.674;2023-04-20T06:37:48;100339.94;;;8.82;62.55
45323;BME280;31382;50.200;8.674;2023-04-20T06:42:49;100339.09;;;8.89;62.68
45323;BME280;31382;50.200;8.674;2023-04-20T06:47:51;100335.44;;;8.99;62.88
45323;BME280;31382;50.200;8.674;2023-04-20T06:52:52;100337.09;;;9.00;62.84
45323;BME280;31382;50.200;8.674;2023-04-20T06:57:54;100336.44;;;8.89;63.11
45323;BME280;31382;50.200;8.674;2023-04-20T07:02:55;100323.69;;;8.83;62.99
45323;BME280;31382;50.200;8.674;2023-04-20T07:07:57;100319.16;;;8.84;63.05
45323;BME280;31382;50.200;8.674;2023-04-20T07:12:58;100317.66;;;8.89;62.80
45323;BME280;31382;50.200;8.674;2023-04-20T07:18:00;100307.09;;;8.80;62.73
45323;BME280;31382;50.200;8.674;2023-04-20T07:23:01;100317.97;;;8.70;63.01
45323;BME280;31382;50.200;8.674;2023-04-20T07:28:02;100322.19;;;8.81;62.74
45323;BME280;31382;50.200;8.674;2023-04-20T07:33:04;100319.84;;;8.94;62.44
45323;BME280;31382;50.200;8.674;2023-04-20T07:38:05;100325.19;;;9.02;62.45
45323;BME280;31382;50.200;8.674;2023-04-20T07:43:07;100332.41;;;9.10;62.26
45323;BME280;31382;50.200;8.674;2023-04-20T07:48:08;100327.22;;;9.33;62.50
45323;BME280;31382;50.200;8.674;2023-04-20T07:53:10;100333.41;;;9.33;62.30
45323;BME280;31382;50.200;8.674;2023-04-20T07:58:13;100334.25;;;9.59;61.95
45323;BME280;31382;50.200;8.674;2023-04-20T08:03:14;100332.34;;;9.84;61.79
45323;BME280;31382;50.200;8.674;2023-04-20T08:08:16;100334.31;;;9.98;62.15
45323;BME280;31382;50.200;8.674;2023-04-20T08:13:18;100334.75;;;10.18;61.34
45323;BME280;31382;50.200;8.674;2023-04-20T08:18:19;100326.09;;;10.47;60.97
45323;BME280;31382;50.200;8.674;2023-04-20T08:23:21;100308.41;;;10.84;60.59
45323;BME280;31382;50.200;8.674;2023-04-20T08:28:27;100303.56;;;11.03;60.28
45323;BME280;31382;50.200;8.674;2023-04-20T08:33:34;100305.59;;;11.24;59.77
45323;BME280;31382;50.200;8.674;2023-04-20T08:38:36;100295.78;;;11.61;59.05
45323;BME280;31382;50.200;8.674;2023-04-20T08:43:38;100287.75;;;11.76;58.55
45323;BME280;31382;50.200;8.674;2023-04-20T08:48:40;100293.13;;;11.76;58.57
45323;BME280;31382;50.200;8.674;2023-04-20T08:53:42;100294.19;;;11.89;58.05
45323;BME280;31382;50.200;8.674;2023-04-20T08:58:43;100281.69;;;12.33;56.82
45323;BME280;31382;50.200;8.674;2023-04-20T09:03:44;100287.06;;;12.48;56.58
45323;BME280;31382;50.200;8.674;2023-04-20T09:08:46;100284.16;;;12.71;55.89
45323;BME280;31382;50.200;8.674;2023-04-20T09:14:05;100279.81;;;12.92;55.47
45323;BME280;31382;50.200;8.674;2023-04-20T09:19:07;100275.31;;;12.99;55.25
45323;BME280;31382;50.200;8.674;2023-04-20T09:24:10;100271.19;;;13.03;54.57
45323;BME280;31382;50.200;8.674;2023-04-20T09:29:19;100261.13;;;12.90;54.06
45323;BME280;31382;50.200;8.674;2023-04-20T09:34:22;100255.59;;;12.98;53.73
45323;BME280;31382;50.200;8.674;2023-04-20T09:39:24;100255.31;;;13.15;53.16
45323;BME280;31382;50.200;8.674;2023-04-20T09:44:26;100243.22;;;13.32;52.49
45323;BME280;31382;50.200;8.674;2023-04-20T09:49:28;100236.75;;;13.55;52.09
45323;BME280;31382;50.200;8.674;2023-04-20T09:54:30;100228.25;;;13.64;51.75
45323;BME280;31382;50.200;8.674;2023-04-20T09:59:32;100229.50;;;13.62;51.59
45323;BME280;31382;50.200;8.674;2023-04-20T10:04:33;100211.66;;;13.67;51.52
45323;BME280;31382;50.200;8.674;2023-04-20T10:09:35;100217.97;;;13.81;51.12
45323;BME280;31382;50.200;8.674;2023-04-20T10:14:37;100196.38;;;13.88;50.25
45323;BME280;31382;50.200;8.674;2023-04-20T10:19:41;100186.25;;;13.97;50.00
45323;BME280;31382;50.200;8.674;2023-04-20T10:24:42;100186.28;;;14.10;49.75
45323;BME280;31382;50.200;8.674;2023-04-20T10:29:44;100180.22;;;14.01;49.30
45323;BME280;31382;50.200;8.674;2023-04-20T10:34:46;100183.09;;;13.93;49.32
45323;BME280;31382;50.200;8.674;2023-04-20T10:39:47;100188.50;;;13.93;49.02
45323;BME280;31382;50.200;8.674;2023-04-20T10:44:49;100171.22;;;13.81;49.45
45323;BME280;31382;50.200;8.674;2023-04-20T10:49:51;100173.88;;;13.74;49.19
45323;BME280;31382;50.200;8.674;2023-04-20T10:54:53;100168.72;;;13.86;49.08
45323;BME280;31382;50.200;8.674;2023-04-20T10:59:54;100154.25;;;14.14;48.00
45323;BME280;31382;50.200;8.674;2023-04-20T11:04:56;100152.63;;;14.26;47.85
45323;BME280;31382;50.200;8.674;2023-04-20T11:10:01;100139.91;;;14.13;47.61
45323;BME280;31382;50.200;8.674;2023-04-20T11:15:04;100146.00;;;13.67;48.02
45323;BME280;31382;50.200;8.674;2023-04-20T11:20:11;100136.00;;;13.61;47.64
45323;BME280;31382;50.200;8.674;2023-04-20T11:25:13;100121.31;;;13.77;47.91
45323;BME280;31382;50.200;8.674;2023-04-20T11:30:14;100125.69;;;13.78;48.17
45323;BME280;31382;50.200;8.674;2023-04-20T11:35:16;100123.06;;;14.11;47.41
45323;BME280;31382;50.200;8.674;2023-04-20T11:40:17;100119.13;;;14.27;47.64
45323;BME280;31382;50.200;8.674;2023-04-20T11:45:19;100117.09;;;14.56;48.42
45323;BME280;31382;50.200;8.674;2023-04-20T11:50:21;100106.47;;;14.81;48.08
45323;BME280;31382;50.200;8.674;2023-04-20T11:55:22;100106.44;;;15.21;47.18
45323;BME280;31382;50.200;8.674;2023-04-20T12:00:24;100105.22;;;15.69;46.44
45323;BME280;31382;50.200;8.674;2023-04-20T12:05:26;100106.09;;;16.01;46.49
45323;BME280;31382;50.200;8.674;2023-04-20T12:10:28;100099.44;;;16.03;45.93
45323;BME280;31382;50.200;8.674;2023-04-20T12:15:29;100094.56;;;15.80;46.02
45323;BME280;31382;50.200;8.674;2023-04-20T12:20:31;100088.63;;;15.97;45.36
45323;BME280;31382;50.200;8.674;2023-04-20T12:25:32;100084.59;;;16.38;43.91
45323;BME280;31382;50.200;8.674;2023-04-20T12:30:34;100072.16;;;16.74;43.00
45323;BME280;31382;50.200;8.674;2023-04-20T12:35:36;100072.53;;;17.21;41.79
45323;BME280;31382;50.200;8.674;2023-04-20T12:40:37;100066.22;;;17.76;40.48
45323;BME280;31382;50.200;8.674;2023-04-20T12:45:38;100054.63;;;18.11;38.87
45323;BME280;31382;50.200;8.674;2023-04-20T12:50:40;100055.81;;;18.80;37.45
45323;BME280;31382;50.200;8.674;2023-04-20T12:55:42;100056.59;;;18.69;36.98
45323;BME280;31382;50.200;8.674;2023-04-20T13:00:43;100056.81;;;18.56;37.02
45323;BME280;31382;50.200;8.674;2023-04-20T13:05:45;100054.88;;;18.09;37.51
45323;BME280;31382;50.200;8.674;2023-04-20T13:10:46;100056.47;;;17.68;37.91
45323;BME280;31382;50.200;8.674;2023-04-20T13:15:48;100074.34;;;17.27;38.19
45323;BME280;31382;50.200;8.674;2023-04-20T13:20:49;100075.03;;;16.79;39.02
45323;BME280;31382;50.200;8.674;2023-04-20T13:25:51;100073.78;;;16.56;39.36
45323;BME280;31382;50.200;8.674;2023-04-20T13:30:52;100093.28;;;16.15;39.43
45323;BME280;31382;50.200;8.674;2023-04-20T13:35:55;100099.56;;;15.77;40.52
45323;BME280;31382;50.200;8.674;2023-04-20T13:40:56;100087.50;;;15.66;40.90
45323;BME280;31382;50.200;8.674;2023-04-20T13:45:58;100085.63;;;15.66;41.02
45323;BME280;31382;50.200;8.674;2023-04-20T13:50:59;100082.31;;;15.58;40.83
45323;BME280;31382;50.200;8.674;2023-04-20T13:56:01;100084.25;;;15.44;40.79
45323;BME280;31382;50.200;8.674;2023-04-20T14:01:07;100103.88;;;15.39;41.11
45323;BME280;31382;50.200;8.674;2023-04-20T14:06:09;100119.00;;;14.75;43.51
45323;BME280;31382;50.200;8.674;2023-04-20T14:11:10;100108.75;;;14.37;45.65
45323;BME280;31382;50.200;8.674;2023-04-20T14:16:12;100092.13;;;14.40;45.90
45323;BME280;31382;50.200;8.674;2023-04-20T14:21:16;100086.91;;;14.52;45.67
45323;BME280;31382;50.200;8.674;2023-04-20T14:26:19;100065.72;;;14.62;45.57
45323;BME280;31382;50.200;8.674;2023-04-20T14:31:21;100071.50;;;14.86;44.82
45323;BME280;31382;50.200;8.674;2023-04-20T14:36:23;100070.22;;;15.02;44.31
45323;BME280;31382;50.200;8.674;2023-04-20T14:41:24;100070.44;;;15.07;44.03
45323;BME280;31382;50.200;8.674;2023-04-20T14:46:25;100072.09;;;14.95;43.91
45323;BME280;31382;50.200;8.674;2023-04-20T14:51:27;100074.00;;;14.81;44.49
45323;BME280;31382;50.200;8.674;2023-04-20T14:56:28;100078.19;;;14.57;45.18
45323;BME280;31382;50.200;8.674;2023-04-20T15:01:30;100078.59;;;14.40;45.49
45323;BME280;31382;50.200;8.674;2023-04-20T15:06:31;100084.00;;;14.27;46.45
45323;BME280;31382;50.200;8.674;2023-04-20T15:11:34;100084.81;;;14.21;46.82
45323;BME280;31382;50.200;8.674;2023-04-20T15:16:36;100093.09;;;13.99;47.09
45323;BME280;31382;50.200;8.674;2023-04-20T15:21:37;100080.81;;;13.83;47.77
45323;BME280;31382;50.200;8.674;2023-04-20T15:26:38;100087.66;;;13.79;48.09
45323;BME280;31382;50.200;8.674;2023-04-20T15:31:40;100077.47;;;13.75;48.18
45323;BME280;31382;50.200;8.674;2023-04-20T15:36:43;100082.41;;;13.64;48.52
45323;BME280;31382;50.200;8.674;2023-04-20T15:41:45;100077.78;;;13.45;48.67
45323;BME280;31382;50.200;8.674;2023-04-20T15:46:46;100082.31;;;13.38;48.83
45323;BME280;31382;50.200;8.674;2023-04-20T15:51:47;100081.06;;;13.34;48.55
45323;BME280;31382;50.200;8.674;2023-04-20T15:56:49;100086.63;;;13.32;49.12
45323;BME280;31382;50.200;8.674;2023-04-20T16:01:51;100081.38;;;13.24;49.05
45323;BME280;31382;50.200;8.674;2023-04-20T16:06:53;100100.00;;;13.12;49.04
45323;BME280;31382;50.200;8.674;2023-04-20T16:11:55;100105.94;;;13.01;49.59
45323;BME280;31382;50.200;8.674;2023-04-20T16:17:00;100111.31;;;12.94;49.86
45323;BME280;31382;50.200;8.674;2023-04-20T16:22:02;100117.06;;;12.84;50.03
45323;BME280;31382;50.200;8.674;2023-04-20T16:27:04;100117.22;;;12.76;50.41
45323;BME280;31382;50.200;8.674;2023-04-20T16:32:05;100120.91;;;12.47;51.29
45323;BME280;31382;50.200;8.674;2023-04-20T16:37:07;100128.31;;;12.38;52.21
45323;BME280;31382;50.200;8.674;2023-04-20T16:42:08;100122.06;;;12.38;51.84
45323;BME280;31382;50.200;8.674;2023-04-20T16:47:10;100114.38;;;12.35;52.50
45323;BME280;31382;50.200;8.674;2023-04-20T16:52:12;100115.19;;;12.14;53.06
45323;BME280;31382;50.200;8.674;2023-04-20T16:57:13;100105.19;;;12.07;53.64
45323;BME280;31382;50.200;8.674;2023-04-20T17:02:15;100106.97;;;12.00;53.74
45323;BME280;31382;50.200;8.674;2023-04-20T17:07:16;100100.06;;;11.91;54.33
45323;BME280;31382;50.200;8.674;2023-04-20T17:12:18;100096.06;;;11.87;54.51
45323;BME280;31382;50.200;8.674;2023-04-20T17:17:19;100102.28;;;11.73;55.37
45323;BME280;31382;50.200;8.674;2023-04-20T17:22:20;100102.22;;;11.66;55.74
45323;BME280;31382;50.200;8.674;2023-04-20T17:27:22;100092.69;;;11.48;56.25
45323;BME280;31382;50.200;8.674;2023-04-20T17:32:23;100102.47;;;11.35;57.09
45323;BME280;31382;50.200;8.674;2023-04-20T17:37:25;100105.34;;;11.33;57.16
45323;BME280;31382;50.200;8.674;2023-04-20T17:42:27;100104.31;;;11.34;57.32
45323;BME280;31382;50.200;8.674;2023-04-20T17:47:28;100110.00;;;11.24;58.01
45323;BME280;31382;50.200;8.674;2023-04-20T17:52:32;100098.13;;;11.19;58.28
45323;BME280;31382;50.200;8.674;2023-04-20T17:57:34;100107.00;;;11.19;58.63
45323;BME280;31382;50.200;8.674;2023-04-20T18:02:36;100113.31;;;11.11;59.29
45323;BME280;31382;50.200;8.674;2023-04-20T18:07:38;100117.88;;;11.11;59.24
45323;BME280;31382;50.200;8.674;2023-04-20T18:12:39;100127.44;;;10.99;60.21
45323;BME280;31382;50.200;8.674;2023-04-20T18:17:40;100130.19;;;10.90;60.46
45323;BME280;31382;50.200;8.674;2023-04-20T18:22:42;100138.09;;;10.92;60.66
45323;BME280;31382;50.200;8.674;2023-04-20T18:27:44;100129.91;;;10.85;60.74
45323;BME280;31382;50.200;8.674;2023-04-20T18:32:45;100117.66;;;10.83;61.28
45323;BME280;31382;50.200;8.674;2023-04-20T18:37:47;100129.03;;;10.70;61.66
45323;BME280;31382;50.200;8.674;2023-04-20T18:42:48;100142.56;;;10.62;62.15
45323;BME280;31382;50.200;8.674;2023-04-20T18:47:50;100155.72;;;10.57;62.80
45323;BME280;31382;50.200;8.674;2023-04-20T18:52:51;100158.66;;;10.47;63.19
45323;BME280;31382;50.200;8.674;2023-04-20T18:57:52;100156.22;;;10.37;63.95
45323;BME280;31382;50.200;8.674;2023-04-20T19:02:54;100169.41;;;10.16;64.99
45323;BME280;31382;50.200;8.674;2023-04-20T19:07:55;100178.91;;;10.03;65.53
45323;BME280;31382;50.200;8.674;2023-04-20T19:12:57;100176.81;;;9.82;66.28
45323;BME280;31382;50.200;8.674;2023-04-20T19:17:58;100166.28;;;9.72;66.48
45323;BME280;31382;50.200;8.674;2023-04-20T19:23:00;100164.19;;;9.60;67.49
45323;BME280;31382;50.200;8.674;2023-04-20T19:28:01;100153.66;;;9.50;67.74
45323;BME280;31382;50.200;8.674;2023-04-20T19:33:03;100161.72;;;9.42;68.11
45323;BME280;31382;50.200;8.674;2023-04-20T19:38:05;100175.63;;;9.45;68.36
45323;BME280;31382;50.200;8.674;2023-04-20T19:43:06;100178.56;;;9.19;69.05
45323;BME280;31382;50.200;8.674;2023-04-20T19:48:08;100172.34;;;9.27;69.29
45323;BME280;31382;50.200;8.674;2023-04-20T19:53:09;100166.16;;;9.10;69.83
45323;BME280;31382;50.200;8.674;2023-04-20T19:58:11;100171.22;;;9.05;70.31
45323;BME280;31382;50.200;8.674;2023-04-20T20:03:13;100172.22;;;8.96;70.74
45323;BME280;31382;50.200;8.674;2023-04-20T20:08:16;100154.66;;;8.93;71.05
45323;BME280;31382;50.200;8.674;2023-04-20T20:13:17;100166.53;;;8.82;71.53
45323;BME280;31382;50.200;8.674;2023-04-20T20:18:19;100166.53;;;8.82;72.24
45323;BME280;31382;50.200;8.674;2023-04-20T20:23:20;100158.69;;;8.81;71.98
45323;BME280;31382;50.200;8.674;2023-04-20T20:28:22;100155.63;;;8.92;71.83
45323;BME280;31382;50.200;8.674;2023-04-20T20:33:23;100147.97;;;8.89;72.78
45323;BME280;31382;50.200;8.674;2023-04-20T20:38:24;100148.44;;;8.84;73.11
45323;BME280;31382;50.200;8.674;2023-04-20T20:43:26;100137.22;;;8.89;72.88
45323;BME280;31382;50.200;8.674;2023-04-20T20:48:28;100136.38;;;8.97;73.49
45323;BME280;31382;50.200;8.674;2023-04-20T20:53:30;100137.38;;;8.96;73.36
45323;BME280;31382;50.200;8.674;2023-04-20T20:58:31;100127.47;;;9.04;73.34
45323;BME280;31382;50.200;8.674;2023-04-20T21:03:32;100118.25;;;9.07;73.65
45323;BME280;31382;50.200;8.674;2023-04-20T21:08:35;100107.34;;;9.17;73.56
45323;BME280;31382;50.200;8.674;2023-04-20T21:13:36;100101.09;;;9.24;73.57
45323;BME280;31382;50.200;8.674;2023-04-20T21:18:38;100113.63;;;9.32;73.27
45323;BME280;31382;50.200;8.674;2023-04-20T21:23:39;100116.69;;;9.21;74.06
45323;BME280;31382;50.200;8.674;2023-04-20T21:28:41;100097.41;;;9.25;74.34
45323;BME280;31382;50.200;8.674;2023-04-20T21:33:42;100127.25;;;9.22;74.10
45323;BME280;31382;50.200;8.674;2023-04-20T21:38:44;100123.19;;;9.35;73.94
45323;BME280;31382;50.200;8.674;2023-04-20T21:43:45;100138.25;;;9.36;74.20
45323;BME280;31382;50.200;8.674;2023-04-20T21:48:47;100146.69;;;9.16;74.92
45323;BME280;31382;50.200;8.674;2023-04-20T21:53:48;100136.63;;;9.26;74.67
45323;BME280;31382;50.200;8.674;2023-04-20T21:58:49;100124.03;;;9.35;74.31
45323;BME280;31382;50.200;8.674;2023-04-20T22:03:51;100074.03;;;9.42;74.12
45323;BME280;31382;50.200;8.674;2023-04-20T22:08:52;100080.94;;;9.37;74.82
45323;BME280;31382;50.200;8.674;2023-04-20T22:13:54;100089.31;;;9.33;75.13
45323;BME280;31382;50.200;8.674;2023-04-20T22:18:57;100094.06;;;9.23;75.24
45323;BME280;31382;50.200;8.674;2023-04-20T22:23:58;100097.38;;;9.33;75.35
45323;BME280;31382;50.200;8.674;2023-04-20T22:29:00;100113.41;;;9.42;74.79
45323;BME280;31382;50.200;8.674;2023-04-20T22:34:01;100108.88;;;9.50;74.83
45323;BME280;31382;50.200;8.674;2023-04-20T22:39:03;100096.25;;;9.59;74.85
45323;BME280;31382;50.200;8.674;2023-04-20T22:44:04;100087.03;;;9.62;74.87
45323;BME280;31382;50.200;8.674;2023-04-20T22:49:06;100083.63;;;9.68;75.16
45323;BME280;31382;50.200;8.674;2023-04-20T22:54:08;100083.47;;;9.61;75.25
45323;BME280;31382;50.200;8.674;2023-04-20T22:59:10;100075.78;;;9.58;75.42
45323;BME280;31382;50.200;8.674;2023-04-20T23:04:11;100075.75;;;9.66;75.46
45323;BME280;31382;50.200;8.674;2023-04-20T23:09:13;100075.69;;;9.75;75.05
45323;BME280;31382;50.200;8.674;2023-04-20T23:14:20;100061.72;;;9.79;75.09
45323;BME280;31382;50.200;8.674;2023-04-20T23:19:22;100063.63;;;9.70;75.26
45323;BME280;31382;50.200;8.674;2023-04-20T23:24:25;100044.09;;;9.62;75.91
45323;BME280;31382;50.200;8.674;2023-04-20T23:29:27;100053.63;;;9.64;75.72
45323;BME280;31382;50.200;8.674;2023-04-20T23:34:28;100054.63;;;9.63;75.91
45323;BME280;31382;50.200;8.674;2023-04-20T23:39:35;100065.44;;;9.78;75.51
45323;BME280;31382;50.200;8.674;2023-04-20T23:44:36;100067.75;;;9.81;75.47
45323;BME280;31382;50.200;8.674;2023-04-20T23:49:37;100055.53;;;9.79;75.61
45323;BME280;31382;50.200;8.674;2023-04-20T23:54:39;100058.69;;;9.82;75.74
45323;BME280;31382;50.200;8.674;2023-04-20T23:59:40;100061.03;;;9.85;75.52
